Time;durP1;ratioP1;P1;durP2;ratioP2;P2;SDS_P1;SDS_P2;PMS_P1;PMS_P2;Temp;Humidity;BMP_temperature;BMP_pressure;BME280_temperature;BME280_humidity;BME280_pressure;Samples;Min_cycle;Max_cycle;Signal;HPM_P1;HPM_P2
2023/03/27 00:00:34;;;;;;;16.92;4.05;;;9.10;99.90;;;;;;5015860;28;20072;-75
2023/03/27 00:03:00;;;;;;;17.80;5.13;;;9.00;99.90;;;;;;5015595;28;20036;-76
2023/03/27 00:05:26;;;;;;;20.20;5.07;;;9.10;99.90;;;;;;5017337;28;20026;-75
2023/03/27 00:07:54;;;;;;;15.90;4.47;;;9.10;99.90;;;;;;5017404;28;20037;-77
2023/03/27 00:10:21;;;;;;;16.42;4.40;;;9.10;99.90;;;;;;5017226;28;20018;-76
2023/03/27 00:12:47;;;;;;;15.10;5.35;;;9.20;99.90;;;;;;5016719;28;20026;-75
2023/03/27 00:15:17;;;;;;;15.90;4.93;;;9.20;99.90;;;;;;5017329;28;20045;-75
2023/03/27 00:17:48;;;;;;;16.65;4.72;;;9.20;99.90;;;;;;5016926;28;20072;-75
2023/03/27 00:20:15;;;;;;;14.63;4.30;;;9.20;99.90;;;;;;5016858;28;20080;-75
2023/03/27 00:22:41;;;;;;;23.25;6.13;;;9.20;99.90;;;;;;5016792;28;20034;-77
2023/03/27 00:25:09;;;;;;;16.10;6.38;;;9.10;99.90;;;;;;5015825;28;20026;-76
2023/03/27 00:27:36;;;;;;;16.85;4.53;;;9.10;99.90;;;;;;5016609;28;20057;-75
2023/03/27 00:30:03;;;;;;;16.70;5.28;;;9.10;99.90;;;;;;5017148;28;20025;-76
2023/03/27 00:32:30;;;;;;;18.92;5.18;;;9.10;99.90;;;;;;5015579;28;20504;-77
2023/03/27 00:34:56;;;;;;;24.30;6.93;;;9.10;99.90;;;;;;5015620;28;20081;-75
2023/03/27 00:37:21;;;;;;;20.15;5.03;;;9.10;99.90;;;;;;5016752;28;20038;-76
2023/03/27 00:39:49;;;;;;;16.00;4.55;;;9.00;99.90;;;;;;5017083;28;20018;-77
2023/03/27 00:42:21;;;;;;;20.90;4.70;;;9.00;99.90;;;;;;5016726;28;20048;-76
2023/03/27 00:44:50;;;;;;;21.65;5.10;;;9.10;99.90;;;;;;5015486;28;20053;-75
2023/03/27 00:47:21;;;;;;;24.77;5.63;;;9.10;99.90;;;;;;5016708;28;20010;-75
2023/03/27 00:49:49;;;;;;;14.45;4.93;;;9.10;99.90;;;;;;5017062;28;20033;-76
2023/03/27 00:52:17;;;;;;;14.73;5.15;;;9.10;99.90;;;;;;5016507;28;20014;-76
2023/03/27 00:54:44;;;;;;;16.13;6.15;;;9.10;99.90;;;;;;5016737;28;20030;-77
2023/03/27 00:57:15;;;;;;;30.55;6.95;;;9.10;99.90;;;;;;5016474;28;20405;-75
2023/03/27 00:59:43;;;;;;;23.67;6.63;;;9.00;99.90;;;;;;5015454;28;20034;-76
2023/03/27 01:02:09;;;;;;;16.85;4.38;;;9.00;99.90;;;;;;5016612;28;20049;-75
2023/03/27 01:04:37;;;;;;;15.75;4.70;;;8.90;99.90;;;;;;5016806;28;20049;-76
2023/03/27 01:07:06;;;;;;;23.83;6.18;;;8.90;99.90;;;;;;5008562;28;20482;-74
2023/03/27 01:09:32;;;;;;;16.02;5.30;;;8.90;99.90;;;;;;5020114;28;20022;-76
2023/03/27 01:12:33;;;;;;;18.73;4.90;;;8.80;99.90;;;;;;5020302;28;20018;-76
2023/03/27 01:15:28;;;;;;;20.67;5.43;;;8.90;99.90;;;;;;5020190;28;20478;-77
2023/03/27 01:17:56;;;;;;;17.98;6.00;;;8.90;99.90;;;;;;5019802;28;20019;-76
2023/03/27 01:20:46;;;;;;;16.67;4.57;;;8.90;99.90;;;;;;5019848;28;20054;-75
2023/03/27 01:23:51;;;;;;;13.75;4.57;;;8.90;99.90;;;;;;5019554;28;20036;-75
2023/03/27 01:26:43;;;;;;;20.38;6.03;;;8.90;99.90;;;;;;5019461;28;20029;-77
2023/03/27 01:29:31;;;;;;;15.98;4.55;;;8.90;99.90;;;;;;5019667;28;20048;-76
2023/03/27 01:32:00;;;;;;;13.40;4.38;;;8.90;99.90;;;;;;5020232;28;20105;-75
2023/03/27 01:34:31;;;;;;;19.33;5.00;;;8.90;99.90;;;;;;5018510;28;20105;-76
2023/03/27 01:37:06;;;;;;;11.88;4.15;;;8.90;99.90;;;;;;5019700;28;20034;-76
2023/03/27 01:39:45;;;;;;;17.35;4.95;;;8.90;99.90;;;;;;5007114;28;20065;-77
2023/03/27 01:42:20;;;;;;;8.95;3.75;;;8.90;99.90;;;;;;5019270;28;20037;-76
2023/03/27 01:45:05;;;;;;;19.08;6.25;;;8.90;99.90;;;;;;5019730;28;20030;-76
2023/03/27 01:47:39;;;;;;;20.77;6.45;;;9.00;99.90;;;;;;5015022;28;20029;-75
2023/03/27 01:50:18;;;;;;;17.70;5.97;;;9.00;99.90;;;;;;5028400;28;20022;-76
2023/03/27 01:52:51;;;;;;;12.27;3.78;;;9.00;99.90;;;;;;5019607;28;20041;-75
2023/03/27 01:55:22;;;;;;;22.83;5.25;;;9.00;99.90;;;;;;5019199;28;20113;-76
2023/03/27 01:57:59;;;;;;;23.25;5.15;;;9.00;99.90;;;;;;5017948;28;20026;-77
2023/03/27 02:00:26;;;;;;;12.15;5.00;;;9.00;99.90;;;;;;5019333;28;20100;-76
2023/03/27 02:03:06;;;;;;;20.63;5.15;;;9.00;99.90;;;;;;5018993;28;20033;-75
2023/03/27 02:05:40;;;;;;;26.97;6.37;;;9.00;99.90;;;;;;5009400;28;20010;-74
2023/03/27 02:08:23;;;;;;;15.23;4.78;;;9.00;99.90;;;;;;5019048;28;20097;-76
2023/03/27 02:10:54;;;;;;;19.83;4.88;;;9.00;99.90;;;;;;5017623;28;20453;-76
2023/03/27 02:13:30;;;;;;;14.32;5.15;;;9.10;99.90;;;;;;5050923;28;20022;-75
2023/03/27 02:15:58;;;;;;;6.15;3.55;;;9.10;99.90;;;;;;5018527;28;20057;-76
2023/03/27 02:18:37;;;;;;;14.00;4.38;;;9.10;99.90;;;;;;5039408;28;20537;-75
2023/03/27 02:21:03;;;;;;;13.88;4.63;;;9.10;99.90;;;;;;5018599;28;20056;-76
2023/03/27 02:23:32;;;;;;;20.15;4.93;;;9.10;99.90;;;;;;5017648;28;20029;-77
2023/03/27 02:25:58;;;;;;;14.63;5.72;;;9.00;99.90;;;;;;5018489;28;20022;-76
2023/03/27 02:28:33;;;;;;;18.08;5.15;;;9.00;99.90;;;;;;5018686;28;20109;-76
2023/03/27 02:31:24;;;;;;;14.05;3.92;;;9.00;99.90;;;;;;5018518;28;20019;-74
2023/03/27 02:34:18;;;;;;;17.08;4.93;;;8.90;99.90;;;;;;5018761;28;20038;-77
2023/03/27 02:36:56;;;;;;;9.50;3.67;;;9.00;99.90;;;;;;5011557;28;20111;-76
2023/03/27 02:39:37;;;;;;;12.15;3.95;;;9.00;99.90;;;;;;5014969;28;20486;-76
2023/03/27 02:42:03;;;;;;;11.05;4.32;;;9.10;99.90;;;;;;5014554;28;20021;-76
2023/03/27 02:44:37;;;;;;;13.98;3.78;;;9.10;99.90;;;;;;5017210;28;20508;-76
2023/03/27 02:47:13;;;;;;;14.07;4.35;;;9.10;99.90;;;;;;5017047;28;20025;-76
2023/03/27 02:49:44;;;;;;;10.15;3.65;;;9.20;99.90;;;;;;5018432;28;20018;-76
2023/03/27 02:52:22;;;;;;;7.80;3.60;;;9.20;99.90;;;;;;5018203;28;20025;-76
2023/03/27 02:54:54;;;;;;;13.88;4.90;;;9.30;99.90;;;;;;5016885;28;20030;-75
2023/03/27 02:57:25;;;;;;;18.23;5.32;;;9.30;99.90;;;;;;5017948;28;20024;-76
2023/03/27 02:59:56;;;;;;;21.08;5.28;;;9.30;99.90;;;;;;5017107;28;20084;-76
2023/03/27 03:02:28;;;;;;;14.90;5.85;;;9.30;99.90;;;;;;5018291;28;20018;-75
2023/03/27 03:05:00;;;;;;;12.75;4.78;;;9.30;99.90;;;;;;5016603;28;20026;-76
2023/03/27 03:07:26;;;;;;;11.55;4.47;;;9.30;99.90;;;;;;5018208;28;20077;-76
2023/03/27 03:09:53;;;;;;;12.00;4.75;;;9.40;99.90;;;;;;5017897;28;20735;-77
2023/03/27 03:12:20;;;;;;;21.83;5.93;;;9.30;99.90;;;;;;5017853;28;20018;-76
2023/03/27 03:14:46;;;;;;;18.92;5.57;;;9.30;99.90;;;;;;5016383;28;20026;-77
2023/03/27 03:17:13;;;;;;;16.88;4.65;;;9.20;99.90;;;;;;5017995;28;20033;-76
2023/03/27 03:19:39;;;;;;;10.80;4.72;;;9.20;99.90;;;;;;5016482;28;20054;-75
2023/03/27 03:22:05;;;;;;;12.23;4.15;;;9.10;99.90;;;;;;5017795;28;20152;-75
2023/03/27 03:24:34;;;;;;;13.55;4.57;;;9.10;99.90;;;;;;5017575;28;20025;-76
2023/03/27 03:27:00;;;;;;;15.32;4.38;;;9.10;99.90;;;;;;5017334;28;20010;-76
2023/03/27 03:29:29;;;;;;;22.45;5.53;;;9.10;99.90;;;;;;5017422;28;20080;-77
2023/03/27 03:31:55;;;;;;;9.57;3.95;;;9.10;99.90;;;;;;5017656;28;20022;-76
2023/03/27 03:34:21;;;;;;;13.52;4.75;;;9.20;99.90;;;;;;5017301;28;20026;-76
2023/03/27 03:36:47;;;;;;;12.60;4.13;;;9.20;99.90;;;;;;5017523;28;20022;-77
2023/03/27 03:39:14;;;;;;;16.75;4.40;;;9.20;99.90;;;;;;5016351;28;20058;-77
2023/03/27 03:41:41;;;;;;;12.10;4.03;;;9.20;99.90;;;;;;5017314;28;20026;-76
2023/03/27 03:44:08;;;;;;;13.20;4.70;;;9.20;99.90;;;;;;5017368;28;20494;-77
2023/03/27 03:46:34;;;;;;;16.88;5.15;;;9.30;99.90;;;;;;5010426;28;20382;-77
2023/03/27 03:49:00;;;;;;;15.20;4.07;;;9.30;99.90;;;;;;5016032;28;20026;-77
2023/03/27 03:51:27;;;;;;;11.75;4.47;;;9.20;99.90;;;;;;5017455;28;20032;-76
2023/03/27 03:53:53;;;;;;;16.05;4.95;;;9.20;99.90;;;;;;5015953;28;20041;-77
2023/03/27 03:56:19;;;;;;;16.52;5.22;;;9.20;99.90;;;;;;5017275;28;20022;-76
2023/03/27 03:58:44;;;;;;;13.15;3.78;;;9.20;99.90;;;;;;5016440;28;20026;-77
2023/03/27 04:01:10;;;;;;;12.45;4.13;;;9.20;99.90;;;;;;5017074;28;20026;-76
2023/03/27 04:03:36;;;;;;;12.00;4.05;;;9.20;99.90;;;;;;5016917;28;20393;-76
2023/03/27 04:06:06;;;;;;;7.95;3.75;;;9.20;99.90;;;;;;5016614;28;20041;-77
2023/03/27 04:08:33;;;;;;;14.38;4.53;;;9.20;99.90;;;;;;5004601;28;20021;-76
2023/03/27 04:10:59;;;;;;;12.35;4.50;;;9.20;99.90;;;;;;5016704;28;20018;-75
2023/03/27 04:13:25;;;;;;;14.23;4.78;;;9.20;99.90;;;;;;5017439;28;20037;-76
2023/03/27 04:15:51;;;;;;;19.50;4.85;;;9.20;99.90;;;;;;5016844;28;20505;-76
2023/03/27 04:18:20;;;;;;;17.65;5.05;;;9.20;99.90;;;;;;5015713;28;20026;-75
2023/03/27 04:20:49;;;;;;;10.05;4.60;;;9.20;99.90;;;;;;5016538;28;20046;-77
2023/03/27 04:23:19;;;;;;;13.13;5.43;;;9.20;99.90;;;;;;5017272;28;20061;-77
2023/03/27 04:25:45;;;;;;;17.75;4.75;;;9.20;99.90;;;;;;5016833;28;20022;-76
2023/03/27 04:28:15;;;;;;;16.25;4.53;;;9.20;99.90;;;;;;5016948;28;20506;-77
2023/03/27 04:30:43;;;;;;;11.90;4.10;;;9.20;99.90;;;;;;5016968;28;20478;-76
2023/03/27 04:33:17;;;;;;;12.20;3.80;;;9.20;99.90;;;;;;5016921;28;20478;-76
2023/03/27 04:35:45;;;;;;;13.88;4.75;;;9.20;99.90;;;;;;5016822;28;20026;-76
2023/03/27 04:38:12;;;;;;;25.38;5.28;;;9.10;99.90;;;;;;5017021;28;20084;-76
2023/03/27 04:40:38;;;;;;;12.38;4.13;;;9.10;99.90;;;;;;5018541;28;20085;-75
2023/03/27 04:43:04;;;;;;;11.30;4.90;;;9.10;99.90;;;;;;5019350;28;20065;-76
2023/03/27 04:45:31;;;;;;;13.38;4.60;;;9.10;99.90;;;;;;5020570;28;20021;-75
2023/03/27 04:47:57;;;;;;;15.80;4.95;;;9.10;99.90;;;;;;5020607;28;20488;-76
2023/03/27 04:50:22;;;;;;;15.15;5.18;;;9.10;99.90;;;;;;5019220;28;20021;-76
2023/03/27 04:52:48;;;;;;;13.43;4.80;;;9.10;99.90;;;;;;5019223;28;20026;-77
2023/03/27 04:55:14;;;;;;;19.08;4.95;;;9.10;99.90;;;;;;5019225;28;20488;-75
2023/03/27 04:57:45;;;;;;;10.80;4.78;;;9.00;99.90;;;;;;5019039;28;20026;-77
2023/03/27 05:00:17;;;;;;;17.25;5.13;;;9.00;99.90;;;;;;5019060;28;20081;-76
2023/03/27 05:02:44;;;;;;;17.00;5.10;;;8.90;99.90;;;;;;5020216;28;20026;-76
2023/03/27 05:05:10;;;;;;;17.48;4.90;;;8.80;99.90;;;;;;5020247;28;20025;-76
2023/03/27 05:07:36;;;;;;;15.43;5.53;;;8.80;99.90;;;;;;5020360;28;20544;-76
2023/03/27 05:10:02;;;;;;;19.38;5.88;;;8.70;99.90;;;;;;5020106;28;20026;-75
2023/03/27 05:12:28;;;;;;;18.40;4.57;;;8.70;99.90;;;;;;5020256;28;20032;-76
2023/03/27 05:14:54;;;;;;;8.40;4.63;;;8.80;99.90;;;;;;5018528;28;20120;-76
2023/03/27 05:17:19;;;;;;;12.85;5.00;;;8.80;99.90;;;;;;5020123;28;20033;-76
2023/03/27 05:19:45;;;;;;;23.88;5.15;;;8.80;99.90;;;;;;5018277;28;20061;-76
2023/03/27 05:22:12;;;;;;;26.25;5.72;;;8.80;99.90;;;;;;5018839;28;20118;-77
2023/03/27 05:24:38;;;;;;;18.13;5.57;;;8.90;99.90;;;;;;5019748;28;20025;-77
2023/03/27 05:27:04;;;;;;;21.52;5.85;;;9.00;99.90;;;;;;5019628;28;20041;-76
2023/03/27 05:29:30;;;;;;;10.85;4.75;;;9.00;99.90;;;;;;5019609;28;20036;-76
2023/03/27 05:31:56;;;;;;;15.57;4.85;;;9.10;99.90;;;;;;5019722;28;20105;-76
2023/03/27 05:34:21;;;;;;;16.55;4.82;;;9.00;99.90;;;;;;5019457;28;20025;-75
2023/03/27 05:36:48;;;;;;;17.58;3.90;;;9.10;99.90;;;;;;5019654;28;20030;-75
2023/03/27 05:39:14;;;;;;;12.05;3.75;;;9.10;99.90;;;;;;5019673;28;20018;-76
2023/03/27 05:41:40;;;;;;;14.15;4.47;;;9.10;99.90;;;;;;5019553;28;20041;-76
2023/03/27 05:44:06;;;;;;;12.07;4.22;;;9.10;99.90;;;;;;5018065;28;20034;-77
2023/03/27 05:46:32;;;;;;;10.45;4.70;;;9.10;99.90;;;;;;5019671;28;20052;-76
2023/03/27 05:49:01;;;;;;;19.42;5.18;;;9.10;99.90;;;;;;5017874;28;20552;-76
2023/03/27 05:51:28;;;;;;;11.48;4.40;;;9.00;99.90;;;;;;5019430;28;20018;-76
2023/03/27 05:53:54;;;;;;;20.52;5.10;;;9.00;99.90;;;;;;5019227;28;20026;-76
2023/03/27 05:56:19;;;;;;;13.90;4.38;;;9.00;99.90;;;;;;5018005;28;20076;-75
2023/03/27 05:58:45;;;;;;;14.90;5.07;;;9.00;99.90;;;;;;5018673;28;20049;-75
2023/03/27 06:01:11;;;;;;;23.73;5.85;;;9.00;99.90;;;;;;5018193;28;20120;-76
2023/03/27 06:03:37;;;;;;;11.38;3.70;;;9.00;99.90;;;;;;5019145;28;20445;-76
2023/03/27 06:06:11;;;;;;;17.08;6.30;;;9.00;99.90;;;;;;5019418;28;20034;-77
2023/03/27 06:08:37;;;;;;;15.35;4.63;;;9.10;99.90;;;;;;5007067;28;20014;-76
2023/03/27 06:11:14;;;;;;;14.65;4.75;;;9.10;99.90;;;;;;5018857;28;20057;-75
2023/03/27 06:13:40;;;;;;;18.08;4.88;;;9.10;99.90;;;;;;5019175;28;20018;-77
2023/03/27 06:16:06;;;;;;;16.65;5.18;;;9.10;99.90;;;;;;5018842;28;20029;-76
2023/03/27 06:18:32;;;;;;;12.55;4.13;;;9.10;99.90;;;;;;5017696;28;20040;-76
2023/03/27 06:20:58;;;;;;;15.63;4.88;;;9.10;99.90;;;;;;5019032;28;20046;-76
2023/03/27 06:23:24;;;;;;;15.70;4.40;;;9.10;99.90;;;;;;5019016;28;20036;-76
2023/03/27 06:25:51;;;;;;;12.27;5.07;;;9.10;99.90;;;;;;5018486;28;20042;-76
2023/03/27 06:28:18;;;;;;;16.50;4.65;;;9.10;99.90;;;;;;5018769;28;20096;-76
2023/03/27 06:30:45;;;;;;;12.88;4.38;;;9.20;99.90;;;;;;5017413;28;20034;-76
2023/03/27 06:33:11;;;;;;;17.58;4.60;;;9.20;99.90;;;;;;5018710;28;20603;-75
2023/03/27 06:35:38;;;;;;;13.65;5.25;;;9.30;99.90;;;;;;5017132;28;20030;-76
2023/03/27 06:38:05;;;;;;;17.92;5.30;;;9.30;99.90;;;;;;5018832;28;20441;-75
2023/03/27 06:40:34;;;;;;;11.02;5.00;;;9.40;99.90;;;;;;5018278;28;20386;-76
2023/03/27 06:43:04;;;;;;;19.65;5.10;;;9.50;99.90;;;;;;5018344;28;20394;-76
2023/03/27 06:45:32;;;;;;;20.65;4.55;;;9.50;99.90;;;;;;5018522;28;20020;-77
2023/03/27 06:48:01;;;;;;;13.55;4.97;;;9.60;99.90;;;;;;5018334;28;20057;-76
2023/03/27 06:50:28;;;;;;;12.73;4.18;;;9.70;99.90;;;;;;5018316;28;20014;-75
2023/03/27 06:52:54;;;;;;;13.73;4.45;;;9.80;99.90;;;;;;5016485;28;20100;-75
2023/03/27 06:55:21;;;;;;;12.75;4.57;;;10.00;99.90;;;;;;5017656;28;20022;-76
2023/03/27 06:57:49;;;;;;;9.90;4.07;;;10.00;99.90;;;;;;5018109;28;20030;-77
2023/03/27 07:00:23;;;;;;;41.00;7.45;;;10.10;99.90;;;;;;5016569;28;20589;-76
2023/03/27 07:02:53;;;;;;;15.27;5.22;;;10.20;99.90;;;;;;5017565;28;20026;-74
2023/03/27 07:05:19;;;;;;;15.13;4.20;;;10.20;99.90;;;;;;5017919;28;20025;-75
2023/03/27 07:07:45;;;;;;;16.42;4.25;;;10.30;99.90;;;;;;5018137;28;20022;-75
2023/03/27 07:10:12;;;;;;;14.90;4.57;;;10.30;99.90;;;;;;5017947;28;20017;-76
2023/03/27 07:12:40;;;;;;;21.25;4.78;;;10.30;99.90;;;;;;5017716;28;20018;-75
2023/03/27 07:15:06;;;;;;;20.45;5.13;;;10.30;99.90;;;;;;5037390;28;20044;-76
2023/03/27 07:17:33;;;;;;;14.93;4.43;;;10.40;99.90;;;;;;5017869;28;20030;-77
2023/03/27 07:19:59;;;;;;;12.93;4.97;;;10.30;99.90;;;;;;5017725;28;20046;-77
2023/03/27 07:22:25;;;;;;;22.30;5.15;;;10.30;99.90;;;;;;5016478;28;20034;-76
2023/03/27 07:24:51;;;;;;;23.88;5.13;;;10.30;99.90;;;;;;5018356;28;20072;-76
2023/03/27 07:27:17;;;;;;;17.85;5.20;;;10.40;99.90;;;;;;5017512;28;20029;-74
2023/03/27 07:29:43;;;;;;;20.55;4.35;;;10.40;99.90;;;;;;5017894;28;20017;-76
2023/03/27 07:32:08;;;;;;;19.92;4.93;;;10.40;99.90;;;;;;5017592;28;20467;-77
2023/03/27 07:34:34;;;;;;;11.82;4.43;;;10.30;99.90;;;;;;5017654;28;20393;-76
2023/03/27 07:37:00;;;;;;;16.63;5.15;;;10.30;99.90;;;;;;5017483;28;20038;-77
2023/03/27 07:39:26;;;;;;;19.27;5.07;;;10.30;99.90;;;;;;5017910;28;20068;-76
2023/03/27 07:41:51;;;;;;;18.27;4.40;;;10.30;99.90;;;;;;5015507;28;20026;-76
2023/03/27 07:44:18;;;;;;;14.32;4.90;;;10.40;99.90;;;;;;5016127;28;20049;-76
2023/03/27 07:46:45;;;;;;;19.08;4.20;;;10.40;99.90;;;;;;5017207;28;20045;-76
2023/03/27 07:49:12;;;;;;;13.32;4.22;;;10.50;99.90;;;;;;5017339;28;21157;-77
2023/03/27 07:51:38;;;;;;;23.20;5.18;;;10.50;99.90;;;;;;5017457;28;20101;-76
2023/03/27 07:54:04;;;;;;;19.25;5.30;;;10.50;99.90;;;;;;5017285;28;20050;-77
2023/03/27 07:56:32;;;;;;;19.75;5.35;;;10.60;99.90;;;;;;5015992;28;20064;-77
2023/03/27 07:58:58;;;;;;;17.80;4.00;;;10.60;99.90;;;;;;5017063;28;20030;-78
2023/03/27 08:01:24;;;;;;;8.85;4.38;;;10.60;99.90;;;;;;5013394;28;20022;-78
2023/03/27 08:03:51;;;;;;;19.88;4.25;;;10.60;99.90;;;;;;5015224;28;20029;-78
2023/03/27 08:06:17;;;;;;;12.80;3.90;;;10.80;99.90;;;;;;5011661;28;20014;-76
2023/03/27 08:08:43;;;;;;;13.95;4.05;;;11.00;99.90;;;;;;5016125;28;20458;-78
2023/03/27 08:11:09;;;;;;;10.48;4.82;;;11.00;99.90;;;;;;5014311;28;20028;-77
2023/03/27 08:13:35;;;;;;;13.68;4.57;;;11.00;99.90;;;;;;5015874;28;20034;-77
2023/03/27 08:16:06;;;;;;;17.58;5.38;;;11.10;99.90;;;;;;5017473;28;20026;-78
2023/03/27 08:18:32;;;;;;;18.13;4.88;;;11.10;99.90;;;;;;5019964;28;20026;-80
2023/03/27 08:21:01;;;;;;;14.82;4.28;;;11.20;99.90;;;;;;5019819;28;20098;-77
2023/03/27 08:23:27;;;;;;;13.40;4.20;;;11.20;99.90;;;;;;5019525;28;20022;-76
2023/03/27 08:25:53;;;;;;;13.90;4.72;;;11.30;99.90;;;;;;5018304;28;20764;-76
2023/03/27 08:28:19;;;;;;;11.15;4.22;;;11.40;99.90;;;;;;5018690;28;20117;-77
2023/03/27 08:30:45;;;;;;;9.15;4.18;;;11.40;99.90;;;;;;5018598;28;20044;-77
2023/03/27 08:33:11;;;;;;;20.73;5.30;;;11.40;99.90;;;;;;5019635;28;20037;-77
2023/03/27 08:35:37;;;;;;;15.18;4.32;;;11.40;99.90;;;;;;5018650;28;20418;-75
2023/03/27 08:38:03;;;;;;;13.98;4.10;;;11.30;99.90;;;;;;5019942;28;20108;-76
2023/03/27 08:40:32;;;;;;;13.55;4.32;;;11.40;99.90;;;;;;5017957;28;20405;-74
2023/03/27 08:43:05;;;;;;;15.45;3.42;;;11.40;99.90;;;;;;5018745;28;20045;-74
2023/03/27 08:45:44;;;;;;;15.38;4.10;;;11.40;99.90;;;;;;5019480;28;20025;-75
2023/03/27 08:48:22;;;;;;;11.70;3.90;;;11.40;99.90;;;;;;5047881;28;20516;-75
2023/03/27 08:50:55;;;;;;;14.65;3.85;;;11.40;99.90;;;;;;5017229;28;20018;-75
2023/03/27 08:53:33;;;;;;;16.35;4.00;;;11.50;99.90;;;;;;5018651;28;20048;-74
2023/03/27 08:55:59;;;;;;;12.38;4.10;;;11.60;99.90;;;;;;5017751;28;20091;-75
2023/03/27 08:58:26;;;;;;;15.77;3.85;;;11.60;99.90;;;;;;5019178;28;20160;-72
2023/03/27 09:01:24;;;;;;;14.80;3.85;;;11.60;99.90;;;;;;5017192;28;20060;-75
2023/03/27 09:03:50;;;;;;;13.32;3.58;;;11.70;99.90;;;;;;5016003;28;20540;-75
2023/03/27 09:06:37;;;;;;;17.83;4.75;;;11.80;99.90;;;;;;5018740;28;20022;-75
2023/03/27 09:09:45;;;;;;;14.05;4.07;;;11.80;99.90;;;;;;5018722;28;20030;-75
2023/03/27 09:12:28;;;;;;;7.85;3.65;;;11.80;99.90;;;;;;4977084;28;20049;-75
2023/03/27 09:15:12;;;;;;;14.05;4.68;;;11.80;99.90;;;;;;4974789;28;20031;-77
2023/03/27 09:17:49;;;;;;;8.30;3.92;;;12.00;99.90;;;;;;5016886;28;20065;-74
2023/03/27 09:20:26;;;;;;;12.05;4.80;;;12.10;99.90;;;;;;5009002;28;20485;-75
2023/03/27 09:23:02;;;;;;;21.23;4.40;;;12.10;99.90;;;;;;5016317;28;20022;-76
2023/03/27 09:25:34;;;;;;;16.58;4.68;;;12.20;99.90;;;;;;5014367;28;20029;-75
2023/03/27 09:28:02;;;;;;;6.75;3.33;;;12.10;99.90;;;;;;5015134;28;20117;-75
2023/03/27 09:30:30;;;;;;;9.02;3.30;;;12.20;99.90;;;;;;5017615;28;20018;-74
2023/03/27 09:33:06;;;;;;;12.68;3.38;;;12.10;99.90;;;;;;5016300;28;20030;-75
2023/03/27 09:35:34;;;;;;;11.07;3.88;;;12.20;99.90;;;;;;5018426;28;20057;-75
2023/03/27 09:38:02;;;;;;;8.93;3.28;;;12.10;99.90;;;;;;5017818;28;20022;-75
2023/03/27 09:40:50;;;;;;;16.50;5.10;;;12.30;99.90;;;;;;5016798;28;20030;-75
2023/03/27 09:43:32;;;;;;;21.17;3.85;;;12.30;99.90;;;;;;5015419;28;20072;-75
2023/03/27 09:45:58;;;;;;;12.38;3.63;;;12.40;99.90;;;;;;5018457;28;20541;-76
2023/03/27 09:48:49;;;;;;;11.02;4.40;;;12.40;99.90;;;;;;5017407;28;20026;-75
2023/03/27 09:51:37;;;;;;;4.93;2.20;;;12.40;99.90;;;;;;5018190;28;20482;-75
2023/03/27 09:54:04;;;;;;;12.93;3.15;;;12.30;99.90;;;;;;5016191;28;20145;-75
2023/03/27 09:56:34;;;;;;;5.93;2.53;;;12.20;99.90;;;;;;5016460;28;20041;-76
2023/03/27 09:59:06;;;;;;;13.70;4.25;;;12.00;99.90;;;;;;5018514;28;20073;-76
2023/03/27 10:01:37;;;;;;;8.82;3.33;;;11.90;99.90;;;;;;5017611;28;20413;-75
2023/03/27 10:04:16;;;;;;;10.20;3.58;;;12.00;99.90;;;;;;5015854;28;20060;-76
2023/03/27 10:06:42;;;;;;;9.77;3.15;;;12.10;99.90;;;;;;5018136;28;20470;-75
2023/03/27 10:09:28;;;;;;;11.35;3.92;;;12.20;99.90;;;;;;5018115;28;20040;-75
2023/03/27 10:12:06;;;;;;;11.27;3.13;;;12.20;99.90;;;;;;5015872;28;20018;-76
2023/03/27 10:14:46;;;;;;;9.82;3.20;;;12.40;99.90;;;;;;5014434;28;20109;-76
2023/03/27 10:17:24;;;;;;;18.00;3.88;;;12.40;99.90;;;;;;5015331;28;20406;-76
2023/03/27 10:19:53;;;;;;;12.73;3.30;;;12.50;99.90;;;;;;5015926;28;20137;-75
2023/03/27 10:22:32;;;;;;;13.57;3.97;;;12.80;99.90;;;;;;5014641;28;20182;-75
2023/03/27 10:25:00;;;;;;;8.95;3.15;;;13.00;99.90;;;;;;5011963;28;20046;-75
2023/03/27 10:27:32;;;;;;;11.52;3.47;;;13.00;99.90;;;;;;5016691;28;20030;-76
2023/03/27 10:29:58;;;;;;;8.65;2.83;;;13.00;99.90;;;;;;5016165;28;20030;-77
2023/03/27 10:32:53;;;;;;;11.45;3.53;;;13.00;99.90;;;;;;5016034;28;20038;-75
2023/03/27 10:35:25;;;;;;;8.10;2.67;;;13.10;99.90;;;;;;5011019;28;20101;-75
2023/03/27 10:37:52;;;;;;;12.05;4.05;;;13.50;99.90;;;;;;5016560;28;20048;-75
2023/03/27 10:40:25;;;;;;;13.38;2.45;;;13.60;99.90;;;;;;5016202;28;20060;-76
2023/03/27 10:42:55;;;;;;;10.13;3.97;;;13.40;99.90;;;;;;5017170;28;20477;-75
2023/03/27 10:45:22;;;;;;;5.68;2.63;;;13.30;99.90;;;;;;5016661;28;20036;-75
2023/03/27 10:47:54;;;;;;;6.07;2.13;;;13.20;99.90;;;;;;5015481;28;20038;-74
2023/03/27 10:50:52;;;;;;;5.57;2.67;;;13.20;99.90;;;;;;5016690;28;20512;-76
2023/03/27 10:53:31;;;;;;;6.20;2.95;;;13.10;99.90;;;;;;5015992;28;20556;-75
2023/03/27 10:56:04;;;;;;;5.10;2.40;;;13.00;99.90;;;;;;5015726;28;20096;-75
2023/03/27 10:58:38;;;;;;;6.03;2.22;;;13.00;99.90;;;;;;5015944;28;20026;-75
2023/03/27 11:01:12;;;;;;;3.78;2.00;;;13.00;99.90;;;;;;5016843;28;20101;-73
2023/03/27 11:03:48;;;;;;;5.75;2.47;;;13.10;99.90;;;;;;5016184;28;20112;-75
2023/03/27 11:06:17;;;;;;;6.28;2.67;;;13.30;99.90;;;;;;5017058;28;20166;-75
2023/03/27 11:09:14;;;;;;;10.88;2.92;;;13.40;99.90;;;;;;5015675;28;20060;-74
2023/03/27 11:11:48;;;;;;;4.05;2.22;;;13.60;99.90;;;;;;5015479;28;20063;-73
2023/03/27 11:14:28;;;;;;;6.18;2.30;;;13.70;99.90;;;;;;5016270;28;20049;-75
2023/03/27 11:17:02;;;;;;;7.30;2.75;;;13.80;99.90;;;;;;5015324;28;20022;-75
2023/03/27 11:19:34;;;;;;;4.10;2.28;;;14.00;99.90;;;;;;5016430;28;20065;-75
2023/03/27 11:22:29;;;;;;;7.43;2.08;;;14.00;99.90;;;;;;5016448;28;20549;-76
2023/03/27 11:25:33;;;;;;;4.60;2.10;;;13.90;99.90;;;;;;5010708;28;20041;-75
2023/03/27 11:28:20;;;;;;;4.18;1.70;;;13.70;99.90;;;;;;5001138;28;20516;-76
2023/03/27 11:30:54;;;;;;;10.23;2.35;;;13.50;99.90;;;;;;5013239;28;20477;-77
2023/03/27 11:33:34;;;;;;;4.82;2.13;;;13.60;99.90;;;;;;5015626;28;20022;-75
2023/03/27 11:36:23;;;;;;;7.43;2.30;;;13.70;99.90;;;;;;5016407;28;20053;-76
2023/03/27 11:39:15;;;;;;;7.30;2.85;;;13.90;99.90;;;;;;5016383;28;20033;-76
2023/03/27 11:41:46;;;;;;;4.93;2.17;;;14.20;99.90;;;;;;5015029;28;20038;-77
2023/03/27 11:44:11;;;;;;;6.00;1.95;;;14.30;99.90;;;;;;5015585;28;20018;-77
2023/03/27 11:47:17;;;;;;;4.85;2.05;;;14.20;99.90;;;;;;5016461;28;20025;-76
2023/03/27 11:50:16;;;;;;;4.30;2.88;;;14.20;99.90;;;;;;4997009;28;20032;-78
2023/03/27 11:53:08;;;;;;;5.70;1.85;;;14.30;99.90;;;;;;5012634;28;20038;-79
2023/03/27 11:55:55;;;;;;;9.43;2.10;;;14.40;99.90;;;;;;5015912;28;20018;-79
2023/03/27 11:58:35;;;;;;;4.20;1.90;;;14.50;99.90;;;;;;5013495;28;20113;-77
2023/03/27 12:01:22;;;;;;;9.50;2.00;;;14.50;99.90;;;;;;5014066;28;20020;-77
2023/03/27 12:04:29;;;;;;;7.45;2.10;;;14.20;99.90;;;;;;5011990;28;20486;-76
2023/03/27 12:07:22;;;;;;;7.30;2.38;;;14.00;99.90;;;;;;5013362;28;20445;-76
2023/03/27 12:10:13;;;;;;;8.88;2.03;;;14.00;99.90;;;;;;5012892;28;20026;-77
2023/03/27 12:12:53;;;;;;;6.63;2.88;;;14.20;99.90;;;;;;5015936;28;20049;-76
2023/03/27 12:15:31;;;;;;;13.25;2.70;;;14.30;99.90;;;;;;5014391;28;20470;-77
2023/03/27 12:18:11;;;;;;;4.88;1.92;;;14.30;99.90;;;;;;5015904;28;20094;-76
2023/03/27 12:20:48;;;;;;;7.47;2.42;;;14.10;99.90;;;;;;5015673;28;20076;-76
2023/03/27 12:23:41;;;;;;;5.78;2.30;;;14.00;99.90;;;;;;5013667;28;20064;-77
2023/03/27 12:26:27;;;;;;;5.95;2.25;;;14.20;99.90;;;;;;5014841;28;20022;-77
2023/03/27 12:28:55;;;;;;;8.35;2.08;;;14.60;99.90;;;;;;5011898;28;20505;-77
2023/03/27 12:31:40;;;;;;;8.98;2.83;;;14.80;99.90;;;;;;5015634;28;20034;-76
2023/03/27 12:34:48;;;;;;;6.75;2.58;;;15.20;99.90;;;;;;5014981;28;20036;-77
2023/03/27 12:37:15;;;;;;;4.38;2.00;;;15.30;99.90;;;;;;5015144;28;20036;-77
2023/03/27 12:40:00;;;;;;;5.90;1.83;;;15.40;99.90;;;;;;5015720;28;20453;-77
2023/03/27 12:42:51;;;;;;;4.22;1.83;;;15.10;99.90;;;;;;5015484;28;20062;-78
2023/03/27 12:45:16;;;;;;;;;;;15.00;99.90;;;;;;5014490;28;20041;-76
2023/03/27 12:48:08;;;;;;;5.20;2.38;;;15.00;99.90;;;;;;5015719;28;20270;-77
2023/03/27 12:50:50;;;;;;;4.88;2.33;;;15.10;99.90;;;;;;5014254;28;20014;-77
2023/03/27 12:53:38;;;;;;;2.17;1.85;;;14.90;99.90;;;;;;5011834;28;20037;-77
2023/03/27 12:56:16;;;;;;;6.15;2.83;;;14.70;99.90;;;;;;5015091;28;20527;-77
2023/03/27 12:58:47;;;;;;;10.98;2.60;;;14.80;99.90;;;;;;5014241;28;20030;-77
2023/03/27 13:01:41;;;;;;;4.18;1.95;;;14.80;99.90;;;;;;5016744;28;20549;-77
2023/03/27 13:04:29;;;;;;;3.20;1.60;;;14.90;99.90;;;;;;5017474;28;20109;-77
2023/03/27 13:07:01;;;;;;;3.88;2.08;;;14.90;99.90;;;;;;5015213;28;20022;-78
2023/03/27 13:09:51;;;;;;;4.43;2.15;;;14.90;99.90;;;;;;5019007;28;20509;-77
2023/03/27 13:12:42;;;;;;;4.97;2.37;;;15.00;99.90;;;;;;5018682;28;20010;-77